sensor_id;sensor_type;location;lat;lon;timestamp;P1;durP1;ratioP1;P2;durP2;ratioP2
8825;SDS011;4449;50.872;4.714;2023-08-07T00:03:26;6.65;;;3.10;;
8825;SDS011;4449;50.872;4.714;2023-08-07T00:05:54;7.07;;;3.13;;
8825;SDS011;4449;50.872;4.714;2023-08-07T00:08:22;4.93;;;2.95;;
8825;SDS011;4449;50.872;4.714;2023-08-07T00:10:50;5.47;;;3.10;;
8825;SDS011;4449;50.872;4.714;2023-08-07T00:13:18;4.75;;;2.80;;
8825;SDS011;4449;50.872;4.714;2023-08-07T00:15:46;6.43;;;3.00;;
8825;SDS011;4449;50.872;4.714;2023-08-07T00:18:13;5.07;;;2.83;;
8825;SDS011;4449;50.872;4.714;2023-08-07T00:20:43;5.13;;;2.80;;
8825;SDS011;4449;50.872;4.714;2023-08-07T00:23:10;6.13;;;2.50;;
8825;SDS011;4449;50.872;4.714;2023-08-07T00:25:38;5.07;;;3.20;;
8825;SDS011;4449;50.872;4.714;2023-08-07T00:28:06;5.65;;;3.22;;
8825;SDS011;4449;50.872;4.714;2023-08-07T00:30:34;8.60;;;2.95;;
8825;SDS011;4449;50.872;4.714;2023-08-07T00:33:01;5.03;;;2.67;;
8825;SDS011;4449;50.872;4.714;2023-08-07T00:35:29;5.45;;;2.72;;
8825;SDS011;4449;50.872;4.714;2023-08-07T00:37:58;4.00;;;2.55;;
8825;SDS011;4449;50.872;4.714;2023-08-07T00:40:26;4.93;;;2.70;;
8825;SDS011;4449;50.872;4.714;2023-08-07T00:42:54;5.30;;;2.80;;
8825;SDS011;4449;50.872;4.714;2023-08-07T00:45:21;4.72;;;3.17;;
8825;SDS011;4449;50.872;4.714;2023-08-07T00:47:49;5.00;;;2.97;;
8825;SDS011;4449;50.872;4.714;2023-08-07T00:50:17;9.77;;;3.00;;
8825;SDS011;4449;50.872;4.714;2023-08-07T00:52:45;6.70;;;2.80;;
8825;SDS011;4449;50.872;4.714;2023-08-07T00:55:14;5.70;;;2.73;;
8825;SDS011;4449;50.872;4.714;2023-08-07T00:57:42;4.78;;;2.60;;
8825;SDS011;4449;50.872;4.714;2023-08-07T01:00:10;3.75;;;2.50;;
8825;SDS011;4449;50.872;4.714;2023-08-07T01:02:38;4.25;;;2.83;;
8825;SDS011;4449;50.872;4.714;2023-08-07T01:05:06;4.25;;;2.78;;
8825;SDS011;4449;50.872;4.714;2023-08-07T01:07:34;2.73;;;2.30;;
8825;SDS011;4449;50.872;4.714;2023-08-07T01:10:02;8.93;;;2.90;;
8825;SDS011;4449;50.872;4.714;2023-08-07T01:12:34;4.07;;;2.60;;
8825;SDS011;4449;50.872;4.714;2023-08-07T01:15:05;3.75;;;2.53;;
8825;SDS011;4449;50.872;4.714;2023-08-07T01:17:35;6.95;;;2.50;;
8825;SDS011;4449;50.872;4.714;2023-08-07T01:20:04;4.03;;;2.47;;
8825;SDS011;4449;50.872;4.714;2023-08-07T01:22:34;4.32;;;2.40;;
8825;SDS011;4449;50.872;4.714;2023-08-07T01:25:02;4.45;;;2.20;;
8825;SDS011;4449;50.872;4.714;2023-08-07T01:27:31;4.55;;;3.20;;
8825;SDS011;4449;50.872;4.714;2023-08-07T01:30:08;4.57;;;2.55;;
8825;SDS011;4449;50.872;4.714;2023-08-07T01:32:39;3.63;;;2.33;;
8825;SDS011;4449;50.872;4.714;2023-08-07T01:35:10;3.83;;;2.50;;
8825;SDS011;4449;50.872;4.714;2023-08-07T01:37:40;4.30;;;2.43;;
8825;SDS011;4449;50.872;4.714;2023-08-07T01:40:09;5.45;;;2.70;;
8825;SDS011;4449;50.872;4.714;2023-08-07T01:42:37;4.40;;;2.35;;
8825;SDS011;4449;50.872;4.714;2023-08-07T01:45:05;6.00;;;2.63;;
8825;SDS011;4449;50.872;4.714;2023-08-07T01:47:33;4.80;;;2.47;;
8825;SDS011;4449;50.872;4.714;2023-08-07T01:50:01;4.22;;;2.30;;
8825;SDS011;4449;50.872;4.714;2023-08-07T01:52:29;5.30;;;2.60;;
8825;SDS011;4449;50.872;4.714;2023-08-07T01:54:58;3.60;;;2.22;;
8825;SDS011;4449;50.872;4.714;2023-08-07T01:57:25;4.03;;;2.42;;
8825;SDS011;4449;50.872;4.714;2023-08-07T01:59:53;3.72;;;2.38;;
8825;SDS011;4449;50.872;4.714;2023-08-07T02:02:21;4.25;;;2.72;;
8825;SDS011;4449;50.872;4.714;2023-08-07T02:04:49;2.70;;;2.10;;
8825;SDS011;4449;50.872;4.714;2023-08-07T02:07:16;2.63;;;2.42;;
8825;SDS011;4449;50.872;4.714;2023-08-07T02:09:44;4.20;;;2.30;;
8825;SDS011;4449;50.872;4.714;2023-08-07T02:12:13;4.70;;;2.50;;
8825;SDS011;4449;50.872;4.714;2023-08-07T02:14:41;3.40;;;2.42;;
8825;SDS011;4449;50.872;4.714;2023-08-07T02:17:09;4.63;;;2.45;;
8825;SDS011;4449;50.872;4.714;2023-08-07T02:19:37;2.42;;;2.22;;
8825;SDS011;4449;50.872;4.714;2023-08-07T02:22:05;3.90;;;2.53;;
8825;SDS011;4449;50.872;4.714;2023-08-07T02:24:32;2.53;;;2.20;;
8825;SDS011;4449;50.872;4.714;2023-08-07T02:27:00;3.92;;;2.22;;
8825;SDS011;4449;50.872;4.714;2023-08-07T02:29:29;3.35;;;2.30;;
8825;SDS011;4449;50.872;4.714;2023-08-07T02:31:59;3.38;;;2.50;;
8825;SDS011;4449;50.872;4.714;2023-08-07T02:34:28;4.13;;;2.13;;
8825;SDS011;4449;50.872;4.714;2023-08-07T02:36:56;5.68;;;2.50;;
8825;SDS011;4449;50.872;4.714;2023-08-07T02:39:24;3.03;;;2.17;;
8825;SDS011;4449;50.872;4.714;2023-08-07T02:41:52;4.30;;;2.50;;
8825;SDS011;4449;50.872;4.714;2023-08-07T02:44:19;4.07;;;2.47;;
8825;SDS011;4449;50.872;4.714;2023-08-07T02:46:48;5.60;;;2.33;;
8825;SDS011;4449;50.872;4.714;2023-08-07T02:49:16;2.67;;;2.17;;
8825;SDS011;4449;50.872;4.714;2023-08-07T02:51:44;5.60;;;2.22;;
8825;SDS011;4449;50.872;4.714;2023-08-07T02:54:12;2.47;;;2.25;;
8825;SDS011;4449;50.872;4.714;2023-08-07T02:56:39;4.00;;;2.38;;
8825;SDS011;4449;50.872;4.714;2023-08-07T02:59:07;4.18;;;2.22;;
8825;SDS011;4449;50.872;4.714;2023-08-07T03:01:35;2.63;;;2.00;;
8825;SDS011;4449;50.872;4.714;2023-08-07T03:04:04;4.13;;;2.42;;
8825;SDS011;4449;50.872;4.714;2023-08-07T03:06:32;3.90;;;2.30;;
8825;SDS011;4449;50.872;4.714;2023-08-07T03:08:59;3.20;;;2.00;;
8825;SDS011;4449;50.872;4.714;2023-08-07T03:11:27;4.07;;;2.05;;
8825;SDS011;4449;50.872;4.714;2023-08-07T03:13:55;3.50;;;2.20;;
8825;SDS011;4449;50.872;4.714;2023-08-07T03:16:22;2.47;;;2.28;;
8825;SDS011;4449;50.872;4.714;2023-08-07T03:18:50;5.67;;;2.50;;
8825;SDS011;4449;50.872;4.714;2023-08-07T03:21:19;3.53;;;2.35;;
8825;SDS011;4449;50.872;4.714;2023-08-07T03:23:47;2.73;;;2.20;;
8825;SDS011;4449;50.872;4.714;2023-08-07T03:26:15;2.38;;;2.17;;
8825;SDS011;4449;50.872;4.714;2023-08-07T03:28:43;6.18;;;2.70;;
8825;SDS011;4449;50.872;4.714;2023-08-07T03:31:12;2.70;;;1.90;;
8825;SDS011;4449;50.872;4.714;2023-08-07T03:33:40;3.53;;;2.17;;
8825;SDS011;4449;50.872;4.714;2023-08-07T03:36:07;3.35;;;2.10;;
8825;SDS011;4449;50.872;4.714;2023-08-07T03:38:37;3.47;;;2.27;;
8825;SDS011;4449;50.872;4.714;2023-08-07T03:41:04;3.15;;;2.10;;
8825;SDS011;4449;50.872;4.714;2023-08-07T03:43:32;4.80;;;2.10;;
8825;SDS011;4449;50.872;4.714;2023-08-07T03:46:00;6.55;;;2.47;;
8825;SDS011;4449;50.872;4.714;2023-08-07T03:48:28;3.30;;;2.30;;
8825;SDS011;4449;50.872;4.714;2023-08-07T03:51:01;5.35;;;2.50;;
8825;SDS011;4449;50.872;4.714;2023-08-07T03:53:29;4.80;;;2.53;;
8825;SDS011;4449;50.872;4.714;2023-08-07T03:55:58;3.58;;;2.20;;
8825;SDS011;4449;50.872;4.714;2023-08-07T03:58:26;2.67;;;1.92;;
8825;SDS011;4449;50.872;4.714;2023-08-07T04:00:53;4.90;;;2.30;;
8825;SDS011;4449;50.872;4.714;2023-08-07T04:03:21;2.60;;;2.20;;
8825;SDS011;4449;50.872;4.714;2023-08-07T04:05:51;3.97;;;2.33;;
8825;SDS011;4449;50.872;4.714;2023-08-07T04:08:19;3.28;;;2.20;;
8825;SDS011;4449;50.872;4.714;2023-08-07T04:10:58;2.35;;;2.00;;
8825;SDS011;4449;50.872;4.714;2023-08-07T04:13:27;3.38;;;2.30;;
8825;SDS011;4449;50.872;4.714;2023-08-07T04:15:55;4.50;;;2.55;;
8825;SDS011;4449;50.872;4.714;2023-08-07T04:18:22;6.32;;;2.42;;
8825;SDS011;4449;50.872;4.714;2023-08-07T04:20:52;5.20;;;2.60;;
8825;SDS011;4449;50.872;4.714;2023-08-07T04:23:20;2.83;;;2.20;;
8825;SDS011;4449;50.872;4.714;2023-08-07T04:25:48;4.77;;;2.40;;
8825;SDS011;4449;50.872;4.714;2023-08-07T04:28:17;2.70;;;2.30;;
8825;SDS011;4449;50.872;4.714;2023-08-07T04:30:47;3.60;;;2.40;;
8825;SDS011;4449;50.872;4.714;2023-08-07T04:33:16;3.88;;;2.33;;
8825;SDS011;4449;50.872;4.714;2023-08-07T04:35:44;3.35;;;2.13;;
8825;SDS011;4449;50.872;4.714;2023-08-07T04:38:12;5.15;;;2.33;;
8825;SDS011;4449;50.872;4.714;2023-08-07T04:40:43;2.88;;;2.20;;
8825;SDS011;4449;50.872;4.714;2023-08-07T04:43:11;3.50;;;2.33;;
8825;SDS011;4449;50.872;4.714;2023-08-07T04:45:40;7.97;;;2.67;;
8825;SDS011;4449;50.872;4.714;2023-08-07T04:48:10;3.55;;;2.28;;
8825;SDS011;4449;50.872;4.714;2023-08-07T04:50:38;4.57;;;2.63;;
8825;SDS011;4449;50.872;4.714;2023-08-07T04:53:05;3.38;;;2.20;;
8825;SDS011;4449;50.872;4.714;2023-08-07T04:55:33;2.95;;;2.35;;
8825;SDS011;4449;50.872;4.714;2023-08-07T04:58:01;3.73;;;2.33;;
8825;SDS011;4449;50.872;4.714;2023-08-07T05:00:28;4.90;;;2.40;;
8825;SDS011;4449;50.872;4.714;2023-08-07T05:02:57;5.63;;;2.40;;
8825;SDS011;4449;50.872;4.714;2023-08-07T05:05:26;5.10;;;2.70;;
8825;SDS011;4449;50.872;4.714;2023-08-07T05:07:54;6.30;;;2.53;;
8825;SDS011;4449;50.872;4.714;2023-08-07T05:10:23;3.00;;;2.38;;
8825;SDS011;4449;50.872;4.714;2023-08-07T05:12:51;3.38;;;2.30;;
8825;SDS011;4449;50.872;4.714;2023-08-07T05:15:21;4.45;;;2.50;;
8825;SDS011;4449;50.872;4.714;2023-08-07T05:17:49;3.65;;;2.15;;
8825;SDS011;4449;50.872;4.714;2023-08-07T05:20:18;2.15;;;2.03;;
8825;SDS011;4449;50.872;4.714;2023-08-07T05:22:46;3.63;;;2.58;;
8825;SDS011;4449;50.872;4.714;2023-08-07T05:25:13;3.80;;;2.80;;
8825;SDS011;4449;50.872;4.714;2023-08-07T05:27:41;3.65;;;2.33;;
8825;SDS011;4449;50.872;4.714;2023-08-07T05:30:09;3.47;;;2.35;;
8825;SDS011;4449;50.872;4.714;2023-08-07T05:32:37;5.47;;;2.60;;
8825;SDS011;4449;50.872;4.714;2023-08-07T05:35:05;3.35;;;2.38;;
8825;SDS011;4449;50.872;4.714;2023-08-07T05:37:35;4.07;;;2.45;;
8825;SDS011;4449;50.872;4.714;2023-08-07T05:40:03;3.33;;;2.75;;
8825;SDS011;4449;50.872;4.714;2023-08-07T05:42:31;3.97;;;2.60;;
8825;SDS011;4449;50.872;4.714;2023-08-07T05:44:59;9.53;;;2.80;;
8825;SDS011;4449;50.872;4.714;2023-08-07T05:47:27;3.78;;;2.40;;
8825;SDS011;4449;50.872;4.714;2023-08-07T05:49:55;4.53;;;2.58;;
8825;SDS011;4449;50.872;4.714;2023-08-07T05:52:23;5.85;;;2.53;;
8825;SDS011;4449;50.872;4.714;2023-08-07T05:54:52;4.28;;;2.50;;
8825;SDS011;4449;50.872;4.714;2023-08-07T05:57:19;4.23;;;2.30;;
8825;SDS011;4449;50.872;4.714;2023-08-07T05:59:47;4.93;;;2.40;;
8825;SDS011;4449;50.872;4.714;2023-08-07T06:02:14;4.95;;;2.40;;
8825;SDS011;4449;50.872;4.714;2023-08-07T06:04:42;3.67;;;2.67;;
8825;SDS011;4449;50.872;4.714;2023-08-07T06:07:10;3.10;;;2.72;;
8825;SDS011;4449;50.872;4.714;2023-08-07T06:09:38;4.40;;;2.33;;
8825;SDS011;4449;50.872;4.714;2023-08-07T06:12:08;5.72;;;2.22;;
8825;SDS011;4449;50.872;4.714;2023-08-07T06:14:36;3.53;;;2.72;;
8825;SDS011;4449;50.872;4.714;2023-08-07T06:17:04;5.20;;;2.60;;
8825;SDS011;4449;50.872;4.714;2023-08-07T06:19:32;6.55;;;2.92;;
8825;SDS011;4449;50.872;4.714;2023-08-07T06:22:00;4.90;;;2.60;;
8825;SDS011;4449;50.872;4.714;2023-08-07T06:24:27;3.90;;;2.30;;
8825;SDS011;4449;50.872;4.714;2023-08-07T06:26:55;5.70;;;2.95;;
8825;SDS011;4449;50.872;4.714;2023-08-07T06:29:24;7.77;;;3.47;;
8825;SDS011;4449;50.872;4.714;2023-08-07T06:31:52;5.22;;;2.42;;
8825;SDS011;4449;50.872;4.714;2023-08-07T06:34:20;5.18;;;2.53;;
8825;SDS011;4449;50.872;4.714;2023-08-07T06:36:48;4.37;;;2.50;;
8825;SDS011;4449;50.872;4.714;2023-08-07T06:39:15;6.45;;;2.97;;
8825;SDS011;4449;50.872;4.714;2023-08-07T06:41:43;6.07;;;3.33;;
8825;SDS011;4449;50.872;4.714;2023-08-07T06:44:11;7.13;;;2.92;;
8825;SDS011;4449;50.872;4.714;2023-08-07T06:46:40;4.07;;;2.53;;
8825;SDS011;4449;50.872;4.714;2023-08-07T06:49:08;5.55;;;2.78;;
8825;SDS011;4449;50.872;4.714;2023-08-07T06:51:35;4.15;;;2.78;;
8825;SDS011;4449;50.872;4.714;2023-08-07T06:54:03;3.95;;;2.92;;
8825;SDS011;4449;50.872;4.714;2023-08-07T06:56:31;5.75;;;2.78;;
8825;SDS011;4449;50.872;4.714;2023-08-07T06:58:59;5.70;;;2.63;;
8825;SDS011;4449;50.872;4.714;2023-08-07T07:01:26;8.75;;;3.17;;
8825;SDS011;4449;50.872;4.714;2023-08-07T07:03:56;6.25;;;2.85;;
8825;SDS011;4449;50.872;4.714;2023-08-07T07:06:23;4.20;;;2.50;;
8825;SDS011;4449;50.872;4.714;2023-08-07T07:08:52;3.33;;;2.42;;
8825;SDS011;4449;50.872;4.714;2023-08-07T07:11:20;5.10;;;2.53;;
8825;SDS011;4449;50.872;4.714;2023-08-07T07:13:49;7.10;;;2.50;;
8825;SDS011;4449;50.872;4.714;2023-08-07T07:16:17;3.95;;;2.38;;
8825;SDS011;4449;50.872;4.714;2023-08-07T07:18:46;2.67;;;2.28;;
8825;SDS011;4449;50.872;4.714;2023-08-07T07:21:15;4.32;;;2.42;;
8825;SDS011;4449;50.872;4.714;2023-08-07T07:23:43;6.47;;;2.60;;
8825;SDS011;4449;50.872;4.714;2023-08-07T07:26:11;4.05;;;2.88;;
8825;SDS011;4449;50.872;4.714;2023-08-07T07:28:38;5.25;;;2.47;;
8825;SDS011;4449;50.872;4.714;2023-08-07T07:31:06;2.78;;;2.42;;
8825;SDS011;4449;50.872;4.714;2023-08-07T07:33:36;11.80;;;6.30;;
8825;SDS011;4449;50.872;4.714;2023-08-07T07:36:04;4.30;;;2.20;;
8825;SDS011;4449;50.872;4.714;2023-08-07T07:38:34;3.93;;;2.30;;
8825;SDS011;4449;50.872;4.714;2023-08-07T07:41:01;2.78;;;2.13;;
8825;SDS011;4449;50.872;4.714;2023-08-07T07:43:29;5.40;;;2.88;;
8825;SDS011;4449;50.872;4.714;2023-08-07T07:45:57;5.53;;;2.40;;
8825;SDS011;4449;50.872;4.714;2023-08-07T07:48:25;5.22;;;2.20;;
8825;SDS011;4449;50.872;4.714;2023-08-07T07:50:57;3.07;;;2.27;;
8825;SDS011;4449;50.872;4.714;2023-08-07T07:53:26;4.88;;;2.38;;
8825;SDS011;4449;50.872;4.714;2023-08-07T07:55:55;5.80;;;2.35;;
8825;SDS011;4449;50.872;4.714;2023-08-07T07:58:23;2.33;;;2.13;;
8825;SDS011;4449;50.872;4.714;2023-08-07T08:00:51;9.27;;;2.47;;
8825;SDS011;4449;50.872;4.714;2023-08-07T08:03:19;2.50;;;1.85;;
8825;SDS011;4449;50.872;4.714;2023-08-07T08:05:49;6.85;;;2.90;;
8825;SDS011;4449;50.872;4.714;2023-08-07T08:08:17;2.92;;;2.50;;
8825;SDS011;4449;50.872;4.714;2023-08-07T08:10:45;3.90;;;2.42;;
8825;SDS011;4449;50.872;4.714;2023-08-07T08:13:15;5.35;;;2.53;;
8825;SDS011;4449;50.872;4.714;2023-08-07T08:15:43;4.25;;;2.30;;
8825;SDS011;4449;50.872;4.714;2023-08-07T08:18:10;4.93;;;3.17;;
8825;SDS011;4449;50.872;4.714;2023-08-07T08:20:38;3.42;;;2.25;;
8825;SDS011;4449;50.872;4.714;2023-08-07T08:23:06;6.07;;;2.47;;
8825;SDS011;4449;50.872;4.714;2023-08-07T08:25:34;3.45;;;2.30;;
8825;SDS011;4449;50.872;4.714;2023-08-07T08:28:01;2.88;;;2.58;;
8825;SDS011;4449;50.872;4.714;2023-08-07T08:30:31;3.35;;;2.33;;
8825;SDS011;4449;50.872;4.714;2023-08-07T08:32:58;3.03;;;2.30;;
8825;SDS011;4449;50.872;4.714;2023-08-07T08:35:26;4.05;;;2.38;;
8825;SDS011;4449;50.872;4.714;2023-08-07T08:37:54;3.40;;;2.30;;
8825;SDS011;4449;50.872;4.714;2023-08-07T08:40:22;3.17;;;2.20;;
8825;SDS011;4449;50.872;4.714;2023-08-07T08:42:51;3.60;;;2.40;;
8825;SDS011;4449;50.872;4.714;2023-08-07T08:45:21;4.32;;;2.22;;
8825;SDS011;4449;50.872;4.714;2023-08-07T08:47:51;2.87;;;2.20;;
8825;SDS011;4449;50.872;4.714;2023-08-07T08:50:19;4.50;;;2.45;;
8825;SDS011;4449;50.872;4.714;2023-08-07T08:52:46;5.00;;;2.30;;
8825;SDS011;4449;50.872;4.714;2023-08-07T08:55:15;5.53;;;2.17;;
8825;SDS011;4449;50.872;4.714;2023-08-07T08:57:42;3.87;;;2.10;;
8825;SDS011;4449;50.872;4.714;2023-08-07T09:00:11;4.83;;;2.20;;
8825;SDS011;4449;50.872;4.714;2023-08-07T09:02:46;5.10;;;2.30;;
8825;SDS011;4449;50.872;4.714;2023-08-07T09:05:16;4.00;;;2.10;;
8825;SDS011;4449;50.872;4.714;2023-08-07T09:07:43;4.07;;;2.20;;
8825;SDS011;4449;50.872;4.714;2023-08-07T09:10:12;3.47;;;2.28;;
8825;SDS011;4449;50.872;4.714;2023-08-07T09:12:40;3.88;;;2.55;;
8825;SDS011;4449;50.872;4.714;2023-08-07T09:15:10;3.45;;;2.47;;
8825;SDS011;4449;50.872;4.714;2023-08-07T09:17:38;2.35;;;1.90;;
8825;SDS011;4449;50.872;4.714;2023-08-07T09:20:07;4.30;;;2.50;;
8825;SDS011;4449;50.872;4.714;2023-08-07T09:34:24;2.13;;;1.95;;
8825;SDS011;4449;50.872;4.714;2023-08-07T09:36:51;4.60;;;2.50;;
8825;SDS011;4449;50.872;4.714;2023-08-07T09:39:19;3.47;;;2.10;;
8825;SDS011;4449;50.872;4.714;2023-08-07T09:41:51;2.00;;;1.90;;
8825;SDS011;4449;50.872;4.714;2023-08-07T09:44:19;2.08;;;1.77;;
8825;SDS011;4449;50.872;4.714;2023-08-07T09:46:49;3.47;;;2.03;;
8825;SDS011;4449;50.872;4.714;2023-08-07T09:49:17;2.70;;;1.80;;
8825;SDS011;4449;50.872;4.714;2023-08-07T09:51:47;2.40;;;1.60;;
8825;SDS011;4449;50.872;4.714;2023-08-07T09:54:16;2.70;;;2.00;;
8825;SDS011;4449;50.872;4.714;2023-08-07T09:56:44;1.93;;;1.73;;
8825;SDS011;4449;50.872;4.714;2023-08-07T09:59:14;2.88;;;2.00;;
8825;SDS011;4449;50.872;4.714;2023-08-07T10:01:42;6.00;;;2.00;;
8825;SDS011;4449;50.872;4.714;2023-08-07T10:04:09;1.85;;;1.70;;
8825;SDS011;4449;50.872;4.714;2023-08-07T10:06:41;1.90;;;1.80;;
8825;SDS011;4449;50.872;4.714;2023-08-07T10:09:10;1.87;;;1.70;;
8825;SDS011;4449;50.872;4.714;2023-08-07T10:11:38;1.80;;;1.70;;
8825;SDS011;4449;50.872;4.714;2023-08-07T10:14:06;3.67;;;1.80;;
8825;SDS011;4449;50.872;4.714;2023-08-07T10:16:34;2.90;;;2.17;;
8825;SDS011;4449;50.872;4.714;2023-08-07T10:19:05;4.75;;;2.58;;
8825;SDS011;4449;50.872;4.714;2023-08-07T10:21:33;2.80;;;1.80;;
8825;SDS011;4449;50.872;4.714;2023-08-07T10:24:02;2.92;;;1.88;;
8825;SDS011;4449;50.872;4.714;2023-08-07T10:26:32;2.00;;;1.90;;
8825;SDS011;4449;50.872;4.714;2023-08-07T10:29:00;2.33;;;1.90;;
8825;SDS011;4449;50.872;4.714;2023-08-07T10:31:30;2.22;;;1.80;;
8825;SDS011;4449;50.872;4.714;2023-08-07T10:34:02;6.75;;;2.25;;
8825;SDS011;4449;50.872;4.714;2023-08-07T10:36:32;2.25;;;1.70;;
8825;SDS011;4449;50.872;4.714;2023-08-07T10:39:05;1.77;;;1.67;;
8825;SDS011;4449;50.872;4.714;2023-08-07T10:41:39;1.60;;;1.48;;
8825;SDS011;4449;50.872;4.714;2023-08-07T10:44:16;2.53;;;1.60;;
8825;SDS011;4449;50.872;4.714;2023-08-07T10:46:46;1.67;;;1.58;;
8825;SDS011;4449;50.872;4.714;2023-08-07T10:49:29;1.88;;;1.77;;
8825;SDS011;4449;50.872;4.714;2023-08-07T10:51:58;2.10;;;1.80;;
8825;SDS011;4449;50.872;4.714;2023-08-07T10:54:25;1.70;;;1.60;;
8825;SDS011;4449;50.872;4.714;2023-08-07T10:56:54;3.42;;;2.08;;
8825;SDS011;4449;50.872;4.714;2023-08-07T10:59:22;1.90;;;1.80;;
8825;SDS011;4449;50.872;4.714;2023-08-07T11:01:50;1.90;;;1.70;;
8825;SDS011;4449;50.872;4.714;2023-08-07T11:04:18;9.13;;;2.45;;
8825;SDS011;4449;50.872;4.714;2023-08-07T11:06:47;4.95;;;2.33;;
8825;SDS011;4449;50.872;4.714;2023-08-07T11:09:15;2.83;;;2.63;;
8825;SDS011;4449;50.872;4.714;2023-08-07T11:11:43;2.40;;;2.20;;
8825;SDS011;4449;50.872;4.714;2023-08-07T11:14:13;4.30;;;2.00;;
8825;SDS011;4449;50.872;4.714;2023-08-07T11:16:41;1.93;;;1.83;;
8825;SDS011;4449;50.872;4.714;2023-08-07T11:19:09;1.90;;;1.80;;
8825;SDS011;4449;50.872;4.714;2023-08-07T12:19:38;1.80;;;1.70;;
8825;SDS011;4449;50.872;4.714;2023-08-07T12:22:10;1.92;;;1.83;;
8825;SDS011;4449;50.872;4.714;2023-08-07T12:24:37;3.25;;;1.77;;
8825;SDS011;4449;50.872;4.714;2023-08-07T12:27:06;1.70;;;1.60;;
8825;SDS011;4449;50.872;4.714;2023-08-07T12:29:34;1.50;;;1.50;;
8825;SDS011;4449;50.872;4.714;2023-08-07T12:32:02;1.80;;;1.58;;
8825;SDS011;4449;50.872;4.714;2023-08-07T12:34:30;1.50;;;1.50;;
8825;SDS011;4449;50.872;4.714;2023-08-07T12:36:59;2.30;;;1.83;;
8825;SDS011;4449;50.872;4.714;2023-08-07T12:39:27;1.60;;;1.60;;
8825;SDS011;4449;50.872;4.714;2023-08-07T12:41:55;2.42;;;1.90;;
8825;SDS011;4449;50.872;4.714;2023-08-07T12:44:23;2.00;;;1.80;;
8825;SDS011;4449;50.872;4.714;2023-08-07T12:46:51;1.80;;;1.70;;
8825;SDS011;4449;50.872;4.714;2023-08-07T12:49:19;1.77;;;1.60;;
8825;SDS011;4449;50.872;4.714;2023-08-07T12:51:46;2.42;;;1.80;;
8825;SDS011;4449;50.872;4.714;2023-08-07T12:54:15;1.92;;;1.80;;
8825;SDS011;4449;50.872;4.714;2023-08-07T12:56:43;2.40;;;2.30;;
8825;SDS011;4449;50.872;4.714;2023-08-07T12:59:11;2.72;;;1.80;;
8825;SDS011;4449;50.872;4.714;2023-08-07T13:01:39;4.57;;;2.15;;
8825;SDS011;4449;50.872;4.714;2023-08-07T13:04:06;2.65;;;1.77;;
8825;SDS011;4449;50.872;4.714;2023-08-07T13:06:34;2.38;;;1.90;;
8825;SDS011;4449;50.872;4.714;2023-08-07T13:09:02;1.83;;;1.73;;
8825;SDS011;4449;50.872;4.714;2023-08-07T13:11:31;1.77;;;1.67;;
8825;SDS011;4449;50.872;4.714;2023-08-07T13:13:59;1.90;;;1.80;;
8825;SDS011;4449;50.872;4.714;2023-08-07T13:16:27;1.60;;;1.50;;
8825;SDS011;4449;50.872;4.714;2023-08-07T13:18:55;1.98;;;1.88;;
8825;SDS011;4449;50.872;4.714;2023-08-07T13:21:22;1.80;;;1.70;;
8825;SDS011;4449;50.872;4.714;2023-08-07T13:23:50;1.70;;;1.60;;
8825;SDS011;4449;50.872;4.714;2023-08-07T13:26:18;1.50;;;1.50;;
8825;SDS011;4449;50.872;4.714;2023-08-07T13:28:48;1.77;;;1.70;;
8825;SDS011;4449;50.872;4.714;2023-08-07T13:31:15;3.47;;;1.55;;
8825;SDS011;4449;50.872;4.714;2023-08-07T13:33:43;2.38;;;1.55;;
8825;SDS011;4449;50.872;4.714;2023-08-07T13:36:14;2.35;;;1.30;;
8825;SDS011;4449;50.872;4.714;2023-08-07T13:38:42;1.80;;;1.70;;
8825;SDS011;4449;50.872;4.714;2023-08-07T13:41:20;2.47;;;1.88;;
8825;SDS011;4449;50.872;4.714;2023-08-07T13:43:49;1.30;;;1.30;;
8825;SDS011;4449;50.872;4.714;2023-08-07T13:46:17;1.60;;;1.50;;
8825;SDS011;4449;50.872;4.714;2023-08-07T13:48:45;2.17;;;1.77;;
8825;SDS011;4449;50.872;4.714;2023-08-07T13:51:13;1.20;;;1.20;;
8825;SDS011;4449;50.872;4.714;2023-08-07T13:53:41;1.50;;;1.40;;
8825;SDS011;4449;50.872;4.714;2023-08-07T13:56:09;2.75;;;2.00;;
8825;SDS011;4449;50.872;4.714;2023-08-07T13:58:38;1.85;;;1.30;;
8825;SDS011;4449;50.872;4.714;2023-08-07T14:01:07;1.83;;;1.50;;
8825;SDS011;4449;50.872;4.714;2023-08-07T14:03:35;1.20;;;1.20;;
8825;SDS011;4449;50.872;4.714;2023-08-07T14:06:03;1.10;;;1.10;;
8825;SDS011;4449;50.872;4.714;2023-08-07T14:08:30;2.50;;;1.25;;
8825;SDS011;4449;50.872;4.714;2023-08-07T14:11:00;1.50;;;1.40;;
8825;SDS011;4449;50.872;4.714;2023-08-07T14:13:28;1.38;;;1.30;;
8825;SDS011;4449;50.872;4.714;2023-08-07T14:15:55;1.20;;;1.20;;
8825;SDS011;4449;50.872;4.714;2023-08-07T14:18:25;1.40;;;1.30;;
8825;SDS011;4449;50.872;4.714;2023-08-07T14:20:53;1.20;;;1.10;;
8825;SDS011;4449;50.872;4.714;2023-08-07T14:23:20;1.33;;;1.10;;
8825;SDS011;4449;50.872;4.714;2023-08-07T14:25:48;1.20;;;1.10;;
8825;SDS011;4449;50.872;4.714;2023-08-07T14:28:18;2.95;;;2.00;;
8825;SDS011;4449;50.872;4.714;2023-08-07T14:30:46;2.00;;;1.40;;
8825;SDS011;4449;50.872;4.714;2023-08-07T14:33:13;1.13;;;1.08;;
8825;SDS011;4449;50.872;4.714;2023-08-07T14:35:43;1.10;;;1.10;;
8825;SDS011;4449;50.872;4.714;2023-08-07T14:38:11;1.58;;;1.20;;
8825;SDS011;4449;50.872;4.714;2023-08-07T14:40:39;1.08;;;1.08;;
8825;SDS011;4449;50.872;4.714;2023-08-07T14:43:08;1.02;;;1.02;;
8825;SDS011;4449;50.872;4.714;2023-08-07T14:45:36;1.00;;;1.00;;
8825;SDS011;4449;50.872;4.714;2023-08-07T14:48:04;1.27;;;1.27;;
8825;SDS011;4449;50.872;4.714;2023-08-07T14:50:32;1.00;;;1.00;;
8825;SDS011;4449;50.872;4.714;2023-08-07T14:53:01;2.65;;;1.10;;
8825;SDS011;4449;50.872;4.714;2023-08-07T14:55:29;1.60;;;1.35;;
8825;SDS011;4449;50.872;4.714;2023-08-07T14:57:56;2.28;;;1.40;;
8825;SDS011;4449;50.872;4.714;2023-08-07T15:00:24;1.20;;;1.20;;
8825;SDS011;4449;50.872;4.714;2023-08-07T15:02:52;1.00;;;0.90;;
8825;SDS011;4449;50.872;4.714;2023-08-07T15:05:21;1.40;;;1.40;;
8825;SDS011;4449;50.872;4.714;2023-08-07T15:07:48;1.40;;;1.00;;
8825;SDS011;4449;50.872;4.714;2023-08-07T15:10:18;0.90;;;0.90;;
8825;SDS011;4449;50.872;4.714;2023-08-07T15:12:47;1.60;;;1.50;;
8825;SDS011;4449;50.872;4.714;2023-08-07T15:15:15;1.00;;;1.00;;
8825;SDS011;4449;50.872;4.714;2023-08-07T15:17:42;2.15;;;1.13;;
8825;SDS011;4449;50.872;4.714;2023-08-07T15:20:10;1.10;;;1.00;;
8825;SDS011;4449;50.872;4.714;2023-08-07T15:22:38;1.00;;;1.00;;
8825;SDS011;4449;50.872;4.714;2023-08-07T15:25:07;0.85;;;0.85;;
8825;SDS011;4449;50.872;4.714;2023-08-07T15:27:36;1.33;;;1.33;;
8825;SDS011;4449;50.872;4.714;2023-08-07T15:30:04;2.25;;;1.42;;
8825;SDS011;4449;50.872;4.714;2023-08-07T15:32:34;3.97;;;1.50;;
8825;SDS011;4449;50.872;4.714;2023-08-07T15:49:57;1.60;;;1.30;;
8825;SDS011;4449;50.872;4.714;2023-08-07T15:52:25;1.00;;;1.00;;
8825;SDS011;4449;50.872;4.714;2023-08-07T15:54:53;1.40;;;1.30;;
8825;SDS011;4449;50.872;4.714;2023-08-07T15:57:20;4.00;;;1.83;;
8825;SDS011;4449;50.872;4.714;2023-08-07T15:59:49;1.10;;;1.10;;
8825;SDS011;4449;50.872;4.714;2023-08-07T16:02:17;1.73;;;1.63;;
8825;SDS011;4449;50.872;4.714;2023-08-07T16:04:45;2.20;;;1.40;;
8825;SDS011;4449;50.872;4.714;2023-08-07T16:07:14;1.65;;;1.55;;
8825;SDS011;4449;50.872;4.714;2023-08-07T16:09:42;0.98;;;0.98;;
8825;SDS011;4449;50.872;4.714;2023-08-07T16:12:10;1.25;;;1.25;;
8825;SDS011;4449;50.872;4.714;2023-08-07T16:14:37;1.60;;;1.50;;
8825;SDS011;4449;50.872;4.714;2023-08-07T16:17:05;1.77;;;1.67;;
8825;SDS011;4449;50.872;4.714;2023-08-07T16:19:33;2.00;;;1.27;;
8825;SDS011;4449;50.872;4.714;2023-08-07T16:22:01;1.40;;;1.40;;
8825;SDS011;4449;50.872;4.714;2023-08-07T16:24:30;1.55;;;1.40;;
8825;SDS011;4449;50.872;4.714;2023-08-07T16:26:58;1.35;;;1.25;;
8825;SDS011;4449;50.872;4.714;2023-08-07T16:29:26;5.60;;;1.60;;
8825;SDS011;4449;50.872;4.714;2023-08-07T16:31:53;1.07;;;0.97;;
8825;SDS011;4449;50.872;4.714;2023-08-07T16:34:21;2.55;;;1.60;;
8825;SDS011;4449;50.872;4.714;2023-08-07T16:36:49;1.45;;;1.35;;
8825;SDS011;4449;50.872;4.714;2023-08-07T16:39:16;1.35;;;1.20;;
8825;SDS011;4449;50.872;4.714;2023-08-07T16:41:46;1.02;;;1.02;;
8825;SDS011;4449;50.872;4.714;2023-08-07T16:44:13;1.20;;;1.20;;
8825;SDS011;4449;50.872;4.714;2023-08-07T16:46:41;1.42;;;1.33;;
8825;SDS011;4449;50.872;4.714;2023-08-07T16:49:09;1.50;;;1.50;;